createdAt,value
2023-01-08T00:00:34.671Z,57.83
2023-01-08T00:03:03.800Z,44.40
2023-01-08T00:05:32.862Z,52.75
2023-01-08T00:08:01.851Z,47.85
2023-01-08T00:10:30.503Z,56.38
2023-01-08T00:12:59.490Z,49.92
2023-01-08T00:15:30.279Z,50.42
2023-01-08T00:17:59.335Z,34.45
2023-01-08T00:20:28.985Z,52.03
2023-01-08T00:22:57.660Z,30.45
2023-01-08T00:25:26.726Z,49.65
2023-01-08T00:27:57.068Z,45.95
2023-01-08T00:30:26.228Z,44.22
2023-01-08T00:32:56.597Z,41.88
2023-01-08T00:35:25.748Z,30.98
2023-01-08T00:37:54.390Z,39.10
2023-01-08T00:40:23.376Z,41.65
2023-01-08T00:42:52.372Z,32.67
2023-01-08T00:45:21.304Z,43.88
2023-01-08T00:47:50.226Z,45.42
2023-01-08T00:50:20.684Z,22.10
2023-01-08T00:52:49.335Z,46.55
2023-01-08T00:55:18.415Z,49.20
2023-01-08T00:57:47.407Z,39.05
2023-01-08T01:00:17.672Z,29.35
2023-01-08T01:05:17.134Z,28.77
2023-01-08T01:07:47.319Z,36.75
2023-01-08T01:10:17.247Z,42.65
2023-01-08T01:12:46.433Z,40.20
2023-01-08T01:15:17.030Z,41.67
2023-01-08T01:17:47.227Z,39.78
2023-01-08T01:22:46.610Z,39.00
2023-01-08T01:25:15.567Z,25.42
2023-01-08T01:27:44.487Z,34.15
2023-01-08T01:30:14.132Z,40.05
2023-01-08T01:32:43.098Z,22.30
2023-01-08T01:35:12.245Z,27.63
2023-01-08T01:37:40.807Z,37.25
2023-01-08T01:40:12.361Z,41.08
2023-01-08T01:42:41.377Z,36.08
2023-01-08T01:45:17.394Z,29.35
2023-01-08T01:47:48.218Z,28.42
2023-01-08T01:50:19.766Z,30.73
2023-01-08T01:52:52.000Z,27.20
2023-01-08T01:55:22.627Z,33.80
2023-01-08T01:57:54.927Z,26.65
2023-01-08T02:00:24.270Z,35.40
2023-01-08T02:02:53.813Z,21.65
2023-01-08T02:05:23.441Z,31.92
2023-01-08T02:07:57.030Z,38.75
2023-01-08T02:10:31.244Z,28.48
2023-01-08T02:13:07.179Z,40.60
2023-01-08T02:15:41.974Z,27.73
2023-01-08T02:18:14.795Z,38.35
2023-01-08T02:20:46.409Z,30.98
2023-01-08T02:23:25.030Z,39.58
2023-01-08T02:26:06.906Z,25.48
2023-01-08T02:28:39.757Z,38.20
2023-01-08T02:31:09.101Z,23.27
2023-01-08T02:33:38.077Z,35.47
2023-01-08T02:36:27.896Z,36.10
2023-01-08T02:39:12.618Z,34.45
2023-01-08T02:41:53.191Z,36.42
2023-01-08T02:44:24.647Z,31.40
2023-01-08T02:46:54.167Z,33.88
2023-01-08T02:49:24.888Z,31.00
2023-01-08T02:51:55.357Z,31.38
2023-01-08T02:54:27.896Z,30.35
2023-01-08T02:57:01.587Z,28.92
2023-01-08T02:59:31.682Z,19.15
2023-01-08T03:02:01.267Z,26.67
2023-01-08T03:04:33.060Z,15.10
2023-01-08T03:07:02.021Z,15.95
2023-01-08T03:09:31.114Z,27.67
2023-01-08T03:12:05.813Z,19.05
2023-01-08T03:14:38.644Z,23.98
2023-01-08T03:17:09.972Z,18.63
2023-01-08T03:19:43.666Z,25.65
2023-01-08T03:22:14.997Z,22.70
2023-01-08T03:24:45.475Z,21.02
2023-01-08T03:27:19.671Z,24.42
2023-01-08T03:29:51.281Z,18.45
2023-01-08T03:32:21.298Z,20.80
2023-01-08T03:34:50.842Z,22.05
2023-01-08T03:37:22.612Z,13.93
2023-01-08T03:39:55.586Z,23.42
2023-01-08T03:42:26.842Z,26.55
2023-01-08T03:44:55.937Z,19.55
2023-01-08T03:47:26.351Z,16.42
2023-01-08T03:49:57.224Z,25.83
2023-01-08T03:52:27.794Z,26.23
2023-01-08T03:54:57.608Z,13.93
2023-01-08T03:57:28.247Z,15.98
2023-01-08T03:59:57.243Z,16.50
2023-01-08T04:02:26.277Z,15.93
2023-01-08T04:04:54.934Z,16.45
2023-01-08T04:07:23.857Z,25.70
2023-01-08T04:09:52.859Z,24.63
2023-01-08T04:12:21.867Z,25.33
2023-01-08T04:14:52.268Z,13.07
2023-01-08T04:17:21.153Z,16.17
2023-01-08T04:19:49.703Z,14.70
2023-01-08T04:22:18.615Z,9.00
2023-01-08T04:24:47.596Z,11.80
2023-01-08T04:27:16.511Z,15.63
2023-01-08T04:29:45.647Z,14.60
2023-01-08T04:32:16.172Z,18.02
2023-01-08T04:34:44.880Z,14.57
2023-01-08T04:37:13.991Z,16.08
2023-01-08T04:39:42.952Z,16.65
2023-01-08T04:42:11.833Z,20.30
2023-01-08T04:44:40.723Z,17.15
2023-01-08T04:47:09.709Z,20.95
2023-01-08T04:49:39.723Z,13.75
2023-01-08T04:52:08.813Z,21.23
2023-01-08T04:54:37.754Z,15.93
2023-01-08T04:57:06.771Z,18.63
2023-01-08T04:59:36.038Z,19.50
2023-01-08T05:02:05.113Z,14.40
2023-01-08T05:04:33.802Z,19.38
2023-01-08T05:07:05.385Z,16.90
2023-01-08T05:09:34.337Z,17.90
2023-01-08T05:12:03.304Z,25.08
2023-01-08T05:14:32.274Z,22.17
2023-01-08T05:17:01.230Z,18.48
2023-01-08T05:19:29.878Z,19.05
2023-01-08T05:21:59.160Z,17.20
2023-01-08T05:24:29.536Z,23.60
2023-01-08T05:29:27.131Z,19.95
2023-01-08T05:31:55.780Z,21.05
2023-01-08T05:34:24.834Z,23.48
2023-01-08T05:36:53.857Z,16.73
2023-01-08T05:39:23.013Z,21.23
2023-01-08T05:41:53.365Z,16.17
2023-01-08T05:44:22.334Z,13.45
2023-01-08T05:46:50.932Z,20.33
2023-01-08T05:49:19.934Z,13.57
2023-01-08T05:51:48.929Z,14.60
2023-01-08T05:54:17.977Z,10.65
2023-01-08T05:56:46.886Z,19.02
2023-01-08T05:59:17.488Z,17.77
2023-01-08T06:04:15.015Z,8.70
2023-01-08T06:06:44.093Z,17.55
2023-01-08T06:09:13.113Z,10.77
2023-01-08T06:11:42.143Z,10.85
2023-01-08T06:14:11.092Z,11.10
2023-01-08T06:16:41.056Z,11.55
2023-01-08T06:19:11.131Z,13.23
2023-01-08T06:21:40.302Z,12.43
2023-01-08T06:24:09.570Z,9.00
2023-01-08T06:26:38.617Z,13.30
2023-01-08T06:29:07.782Z,12.35
2023-01-08T06:31:36.480Z,13.25
2023-01-08T06:34:06.954Z,13.55
2023-01-08T06:36:35.902Z,9.15
2023-01-08T06:39:06.881Z,11.18
2023-01-08T06:41:35.974Z,17.88
2023-01-08T06:44:05.133Z,13.70
2023-01-08T06:46:38.326Z,16.80
2023-01-08T06:49:09.141Z,12.82
2023-01-08T06:51:38.244Z,11.40
2023-01-08T06:54:07.349Z,14.25
2023-01-08T06:56:52.345Z,10.48
2023-01-08T06:59:22.057Z,14.95
2023-01-08T07:01:51.070Z,13.95
2023-01-08T07:04:22.163Z,10.63
2023-01-08T07:06:51.156Z,15.90
2023-01-08T07:13:46.055Z,11.73
2023-01-08T07:16:16.174Z,8.85
2023-01-08T07:21:16.329Z,9.90
2023-01-08T07:23:47.377Z,11.32
2023-01-08T07:26:16.410Z,14.10
2023-01-08T07:28:45.493Z,17.23
2023-01-08T07:31:14.535Z,15.25
2023-01-08T07:33:43.478Z,16.30
2023-01-08T07:36:12.592Z,16.65
2023-01-08T07:38:43.562Z,10.95
2023-01-08T07:41:13.352Z,9.88
2023-01-08T07:43:42.024Z,15.17
2023-01-08T07:46:11.200Z,17.48
2023-01-08T07:48:40.264Z,17.38
2023-01-08T07:51:10.018Z,17.25
2023-01-08T07:53:39.526Z,11.20
2023-01-08T07:56:11.964Z,17.30
2023-01-08T07:58:40.670Z,17.00
2023-01-08T08:01:12.342Z,11.57
2023-01-08T08:03:41.731Z,12.70
2023-01-08T08:06:10.980Z,10.60
2023-01-08T08:08:42.066Z,10.80
2023-01-08T08:11:12.665Z,11.70
2023-01-08T08:13:44.976Z,11.10
2023-01-08T08:16:14.301Z,12.98
2023-01-08T08:18:43.375Z,18.00
2023-01-08T08:21:12.484Z,12.82
2023-01-08T08:23:41.463Z,12.57
2023-01-08T08:26:10.528Z,18.30
2023-01-08T08:28:40.783Z,9.85
2023-01-08T08:31:09.901Z,17.30
2023-01-08T08:33:38.947Z,12.00
2023-01-08T08:36:08.973Z,16.13
2023-01-08T08:38:39.051Z,16.50
2023-01-08T08:41:08.521Z,12.45
2023-01-08T08:43:37.258Z,18.42
2023-01-08T08:46:07.734Z,18.58
2023-01-08T08:48:36.740Z,16.00
2023-01-08T08:51:06.150Z,18.50
2023-01-08T08:53:35.070Z,10.97
2023-01-08T08:56:03.994Z,16.20
2023-01-08T08:58:32.611Z,16.65
2023-01-08T09:01:03.864Z,13.07
2023-01-08T09:03:35.084Z,13.75
2023-01-08T09:06:04.334Z,13.27
2023-01-08T09:08:33.450Z,12.50
2023-01-08T09:11:03.995Z,11.65
2023-01-08T09:16:02.117Z,13.48
2023-01-08T09:18:32.541Z,13.57
2023-01-08T09:21:07.528Z,11.18
2023-01-08T09:23:36.951Z,11.90
2023-01-08T09:26:06.645Z,11.75
2023-01-08T09:28:35.266Z,18.42
2023-01-08T09:31:04.861Z,11.57
2023-01-08T09:33:34.506Z,12.32
2023-01-08T09:36:03.626Z,12.95
2023-01-08T09:38:34.179Z,12.65
2023-01-08T09:41:05.052Z,10.20
2023-01-08T09:43:36.674Z,12.57
2023-01-08T09:46:07.557Z,15.75
2023-01-08T09:48:38.564Z,14.35
2023-01-08T09:51:11.321Z,17.45
2023-01-08T09:53:42.763Z,13.52
2023-01-08T09:56:14.177Z,12.00
2023-01-08T09:58:45.665Z,15.55
2023-01-08T10:01:16.808Z,14.70
2023-01-08T10:03:47.955Z,14.35
2023-01-08T10:06:18.105Z,12.30
2023-01-08T10:08:48.616Z,11.70
2023-01-08T10:11:17.807Z,16.85
2023-01-08T10:13:49.936Z,14.73
2023-01-08T10:16:24.589Z,17.17
2023-01-08T10:18:53.688Z,17.38
2023-01-08T10:21:26.507Z,16.05
2023-01-08T10:23:56.955Z,11.60
2023-01-08T10:26:30.275Z,16.77
2023-01-08T10:29:13.356Z,18.40
2023-01-08T10:31:50.705Z,10.40
2023-01-08T10:34:27.100Z,17.63
2023-01-08T10:36:57.031Z,16.40
2023-01-08T10:39:28.859Z,12.02
2023-01-08T10:42:04.363Z,15.07
2023-01-08T10:44:34.260Z,12.05
2023-01-08T10:47:03.805Z,15.57
2023-01-08T10:49:34.590Z,17.73
2023-01-08T10:52:03.614Z,14.02
2023-01-08T10:54:38.605Z,15.73
2023-01-08T10:57:22.220Z,17.48
2023-01-08T10:59:51.364Z,14.13
2023-01-08T11:02:37.308Z,16.65
2023-01-08T11:05:10.106Z,18.13
2023-01-08T11:07:40.407Z,14.98
2023-01-08T11:12:47.669Z,15.30
2023-01-08T11:15:29.607Z,14.52
2023-01-08T11:18:06.778Z,14.20
2023-01-08T11:20:36.004Z,15.43
2023-01-08T11:23:07.910Z,18.77
2023-01-08T11:25:38.051Z,18.58
2023-01-08T11:28:08.320Z,13.32
2023-01-08T11:33:08.238Z,17.90
2023-01-08T11:35:39.251Z,20.40
2023-01-08T11:38:08.734Z,11.73
2023-01-08T11:40:43.867Z,15.48
2023-01-08T11:43:25.219Z,15.05
2023-01-08T11:46:20.523Z,15.20
2023-01-08T11:49:01.507Z,14.75
2023-01-08T11:51:45.377Z,14.52
2023-01-08T11:54:24.337Z,16.73
2023-01-08T11:57:04.769Z,11.88
2023-01-08T11:59:42.168Z,14.13
2023-01-08T12:02:22.266Z,17.95
2023-01-08T12:05:27.019Z,13.93
2023-01-08T12:08:02.144Z,10.23
2023-01-08T12:10:45.381Z,15.55
2023-01-08T12:13:29.730Z,15.25
2023-01-08T12:16:07.381Z,16.77
2023-01-08T12:18:54.325Z,16.80
2023-01-08T12:21:31.358Z,20.70
2023-01-08T12:24:13.149Z,16.58
2023-01-08T12:26:48.113Z,21.40
2023-01-08T12:29:45.681Z,13.57
2023-01-08T12:32:20.199Z,21.02
2023-01-08T12:34:57.212Z,16.88
2023-01-08T12:37:29.950Z,16.13
2023-01-08T12:40:07.151Z,17.77
2023-01-08T12:42:39.849Z,21.50
2023-01-08T12:45:17.901Z,19.80
2023-01-08T12:47:48.666Z,16.42
2023-01-08T12:50:50.771Z,16.25
2023-01-08T12:53:26.765Z,24.42
2023-01-08T12:56:02.551Z,19.70
2023-01-08T12:58:38.857Z,24.50
2023-01-08T13:01:17.856Z,23.10
2023-01-08T13:03:49.060Z,26.55
2023-01-08T13:06:21.188Z,27.38
2023-01-08T13:08:51.762Z,15.77
2023-01-08T13:11:28.111Z,23.42
2023-01-08T13:14:04.691Z,29.92
2023-01-08T13:16:39.637Z,27.13
2023-01-08T13:19:23.294Z,22.98
2023-01-08T13:21:54.153Z,28.42
2023-01-08T13:24:29.627Z,30.23
2023-01-08T13:26:59.696Z,22.95
2023-01-08T13:29:40.077Z,28.45
2023-01-08T13:32:29.175Z,14.38
2023-01-08T13:35:21.237Z,27.57
2023-01-08T13:37:51.811Z,19.98
2023-01-08T13:40:40.579Z,22.77
2023-01-08T13:43:15.551Z,20.98
2023-01-08T13:45:47.568Z,24.92
2023-01-08T13:48:25.914Z,29.00
2023-01-08T13:50:55.491Z,24.90
2023-01-08T13:53:24.892Z,25.58
2023-01-08T13:55:57.376Z,29.67
2023-01-08T13:58:30.730Z,24.63
2023-01-08T14:01:01.387Z,31.40
2023-01-08T14:03:35.595Z,22.98
2023-01-08T14:06:09.148Z,28.73
2023-01-08T14:08:38.886Z,32.88
2023-01-08T14:11:08.171Z,32.35
2023-01-08T14:13:38.210Z,24.40
2023-01-08T14:16:08.036Z,35.17
2023-01-08T14:18:41.695Z,38.08
2023-01-08T14:21:11.012Z,35.13
2023-01-08T14:23:43.098Z,37.17
2023-01-08T14:26:20.296Z,34.10
2023-01-08T14:28:53.143Z,36.45
2023-01-08T14:31:23.662Z,37.83
2023-01-08T14:33:54.851Z,37.17
2023-01-08T14:36:24.174Z,36.00
2023-01-08T14:38:53.286Z,36.57
2023-01-08T14:41:48.762Z,33.28
2023-01-08T14:44:21.070Z,32.63
2023-01-08T14:46:55.549Z,34.78
2023-01-08T14:49:28.216Z,31.67
2023-01-08T14:51:58.805Z,27.35
2023-01-08T14:54:30.192Z,33.40
2023-01-08T14:57:01.524Z,30.83
2023-01-08T14:59:33.157Z,33.40
2023-01-08T15:02:03.412Z,32.38
2023-01-08T15:04:33.786Z,31.85
2023-01-08T15:07:10.119Z,28.75
2023-01-08T15:09:39.233Z,32.33
2023-01-08T15:12:23.223Z,29.15
2023-01-08T15:14:52.164Z,32.80
2023-01-08T15:17:23.095Z,33.63
2023-01-08T15:19:54.294Z,33.55
2023-01-08T15:22:25.714Z,33.90
2023-01-08T15:24:59.551Z,25.30
2023-01-08T15:27:30.075Z,31.23
2023-01-08T15:30:01.103Z,23.75
2023-01-08T15:32:32.626Z,30.63
2023-01-08T15:35:03.140Z,31.83
2023-01-08T15:37:31.769Z,33.50
2023-01-08T15:40:00.948Z,32.03
2023-01-08T15:42:49.076Z,32.70
2023-01-08T15:45:20.572Z,29.98
2023-01-08T15:47:49.776Z,29.45
2023-01-08T15:50:20.688Z,26.73
2023-01-08T15:52:49.622Z,29.75
2023-01-08T15:55:20.240Z,34.22
2023-01-08T15:57:49.389Z,31.70
2023-01-08T16:00:20.233Z,23.38
2023-01-08T16:02:50.843Z,21.90
2023-01-08T16:05:22.837Z,32.78
2023-01-08T16:07:51.448Z,32.03
2023-01-08T16:10:21.011Z,30.23
2023-01-08T16:12:49.964Z,26.15
2023-01-08T16:15:19.250Z,33.42
2023-01-08T16:17:48.290Z,32.45
2023-01-08T16:20:18.175Z,31.20
2023-01-08T16:22:48.223Z,32.20
2023-01-08T16:25:17.273Z,22.25
2023-01-08T16:27:46.259Z,32.17
2023-01-08T16:30:16.094Z,28.88
2023-01-08T16:32:46.696Z,30.95
2023-01-08T16:35:15.659Z,26.40
2023-01-08T16:37:44.269Z,21.63
2023-01-08T16:40:15.471Z,32.45
2023-01-08T16:42:44.480Z,30.23
2023-01-08T16:45:13.532Z,33.15
2023-01-08T16:47:42.572Z,20.35
2023-01-08T16:50:12.806Z,33.17
2023-01-08T16:52:41.421Z,31.48
2023-01-08T16:55:12.051Z,34.10
2023-01-08T16:57:42.463Z,29.88
2023-01-08T17:00:13.319Z,32.28
2023-01-08T17:02:42.321Z,32.58
2023-01-08T17:05:11.471Z,35.45
2023-01-08T17:07:40.388Z,38.78
2023-01-08T17:10:10.735Z,39.73
2023-01-08T17:12:39.884Z,39.97
2023-01-08T17:15:11.272Z,39.80
2023-01-08T17:17:40.190Z,34.10
2023-01-08T17:20:10.459Z,29.98
2023-01-08T17:22:39.131Z,27.38
2023-01-08T17:25:08.995Z,33.38
2023-01-08T17:27:38.222Z,34.10
2023-01-08T17:30:10.259Z,34.80
2023-01-08T17:32:39.835Z,30.63
2023-01-08T17:35:09.611Z,21.52
2023-01-08T17:37:38.568Z,27.02
2023-01-08T17:40:08.658Z,33.80
2023-01-08T17:42:39.384Z,30.98
2023-01-08T17:45:11.662Z,34.72
2023-01-08T17:47:43.105Z,30.17
2023-01-08T17:50:13.077Z,27.30
2023-01-08T17:52:41.640Z,18.88
2023-01-08T17:55:11.075Z,36.75
2023-01-08T17:57:40.398Z,19.90
2023-01-08T18:00:12.374Z,34.80
2023-01-08T18:02:41.493Z,38.42
2023-01-08T18:05:10.732Z,37.63
2023-01-08T18:07:39.431Z,33.45
2023-01-08T18:10:10.152Z,33.58
2023-01-08T18:12:39.792Z,34.90
2023-01-08T18:15:11.388Z,33.55
2023-01-08T18:17:40.490Z,36.95
2023-01-08T18:20:11.011Z,28.73
2023-01-08T18:25:09.716Z,33.60
2023-01-08T18:27:38.650Z,32.00
2023-01-08T18:30:09.111Z,38.78
2023-01-08T18:32:39.600Z,38.97
2023-01-08T18:35:09.298Z,38.42
2023-01-08T18:37:37.917Z,24.25
2023-01-08T18:40:07.956Z,35.88
2023-01-08T18:42:36.985Z,34.65
2023-01-08T18:45:06.722Z,38.95
2023-01-08T18:47:35.759Z,29.95
2023-01-08T18:50:06.923Z,38.85
2023-01-08T18:52:35.670Z,43.58
2023-01-08T18:55:04.781Z,42.45
2023-01-08T18:57:33.751Z,39.42
2023-01-08T19:00:03.803Z,43.58
2023-01-08T19:02:34.081Z,39.90
2023-01-08T19:05:03.454Z,40.20
2023-01-08T19:07:34.353Z,37.00
2023-01-08T19:10:03.529Z,39.75
2023-01-08T19:12:32.587Z,42.08
2023-01-08T19:15:01.640Z,34.30
2023-01-08T19:17:31.965Z,36.42
2023-01-08T19:20:01.067Z,32.80
2023-01-08T19:22:32.057Z,38.40
2023-01-08T19:25:02.647Z,42.03
2023-01-08T19:27:31.710Z,41.42
2023-01-08T19:30:01.544Z,43.13
2023-01-08T19:32:30.601Z,40.85
2023-01-08T19:35:01.371Z,29.23
2023-01-08T19:37:32.381Z,39.95
2023-01-08T19:40:03.162Z,38.80
2023-01-08T19:42:49.491Z,27.70
2023-01-08T19:45:19.344Z,40.10
2023-01-08T19:47:48.475Z,30.52
2023-01-08T19:50:17.838Z,21.02
2023-01-08T19:52:47.424Z,35.22
2023-01-08T19:55:22.138Z,41.95
2023-01-08T19:57:51.260Z,42.83
2023-01-08T20:00:22.461Z,33.90
2023-01-08T20:02:52.909Z,29.33
2023-01-08T20:05:21.959Z,35.78
2023-01-08T20:07:53.248Z,42.33
2023-01-08T20:10:23.703Z,33.00
2023-01-08T20:12:52.719Z,40.85
2023-01-08T20:15:22.004Z,37.45
2023-01-08T20:17:51.041Z,42.17
2023-01-08T20:20:20.117Z,42.72
2023-01-08T20:22:48.681Z,30.67
2023-01-08T20:25:18.066Z,30.50
2023-01-08T20:27:48.541Z,37.25
2023-01-08T20:30:17.929Z,40.90
2023-01-08T20:32:46.991Z,35.83
2023-01-08T20:35:16.193Z,47.55
2023-01-08T20:37:46.787Z,43.65
2023-01-08T20:40:16.165Z,43.53
2023-01-08T20:42:46.386Z,43.03
2023-01-08T20:45:17.026Z,40.65
2023-01-08T20:47:46.063Z,42.08
2023-01-08T20:50:19.972Z,44.05
2023-01-08T20:52:49.331Z,42.35
2023-01-08T20:55:18.770Z,38.83
2023-01-08T20:57:47.956Z,32.17
2023-01-08T21:00:19.584Z,45.15
2023-01-08T21:02:48.847Z,41.92
2023-01-08T21:05:17.939Z,45.25
2023-01-08T21:07:46.757Z,44.88
2023-01-08T21:10:15.830Z,38.42
2023-01-08T21:12:45.290Z,38.45
2023-01-08T21:15:14.377Z,41.85
2023-01-08T21:17:44.865Z,36.78
2023-01-08T21:20:14.244Z,32.20
2023-01-08T21:22:42.966Z,31.85
2023-01-08T21:25:12.159Z,26.27
2023-01-08T21:27:41.212Z,40.08
2023-01-08T21:30:12.411Z,29.00
2023-01-08T21:32:41.444Z,37.33
2023-01-08T21:35:11.985Z,45.67
2023-01-08T21:40:10.731Z,28.48
2023-01-08T21:42:57.431Z,41.63
2023-01-08T21:45:26.533Z,33.10
2023-01-08T21:47:58.480Z,29.10
2023-01-08T21:50:29.391Z,33.97
2023-01-08T21:53:15.237Z,29.52
2023-01-08T21:55:44.283Z,33.03
2023-01-08T21:58:13.931Z,40.42
2023-01-08T22:00:43.126Z,33.75
2023-01-08T22:03:12.113Z,29.20
2023-01-08T22:05:42.557Z,27.30
2023-01-08T22:08:18.413Z,41.25
2023-01-08T22:10:47.274Z,24.73
2023-01-08T22:13:16.199Z,40.45
2023-01-08T22:15:45.232Z,40.70
2023-01-08T22:18:14.338Z,41.55
2023-01-08T22:20:46.750Z,37.65
2023-01-08T22:23:15.910Z,45.80
2023-01-08T22:25:44.695Z,33.72
2023-01-08T22:28:14.530Z,40.58
2023-01-08T22:30:43.632Z,41.40
2023-01-08T22:33:12.578Z,42.92
2023-01-08T22:35:41.610Z,35.42
2023-01-08T22:38:12.107Z,34.25
2023-01-08T22:40:40.747Z,32.22
2023-01-08T22:43:09.813Z,37.65
2023-01-08T22:45:38.995Z,40.50
2023-01-08T22:48:08.117Z,32.40
2023-01-08T22:50:37.260Z,27.48
2023-01-08T22:53:06.360Z,40.75
2023-01-08T22:55:36.547Z,43.08
2023-01-08T22:58:05.687Z,33.50
2023-01-08T23:00:35.009Z,38.88
2023-01-08T23:03:11.267Z,42.33
2023-01-08T23:05:40.672Z,34.47
2023-01-08T23:08:10.129Z,43.70
2023-01-08T23:10:40.402Z,41.80
2023-01-08T23:13:09.548Z,41.05
2023-01-08T23:15:38.790Z,33.88
2023-01-08T23:18:07.825Z,45.42
2023-01-08T23:20:36.905Z,27.10
2023-01-08T23:23:05.911Z,37.60
2023-01-08T23:25:35.044Z,36.85
2023-01-08T23:28:05.683Z,35.10
2023-01-08T23:30:35.222Z,31.83
2023-01-08T23:33:04.688Z,34.60
2023-01-08T23:35:33.935Z,31.27
2023-01-08T23:38:03.024Z,42.15
2023-01-08T23:40:31.715Z,34.45
2023-01-08T23:43:00.854Z,40.15
2023-01-08T23:45:31.432Z,39.88
2023-01-08T23:48:00.442Z,42.03
2023-01-08T23:50:29.461Z,35.70
2023-01-08T23:52:58.653Z,38.28
2023-01-08T23:55:27.397Z,42.55
2023-01-08T23:57:58.045Z,40.00
